sensor_id;sensor_type;location;lat;lon;timestamp;temperature;humidity
4677;DHT22;2352;48.180;11.478;2024-02-23T00:03:51;9.30;71.40
4677;DHT22;2352;48.180;11.478;2024-02-23T00:08:54;9.20;70.90
4677;DHT22;2352;48.180;11.478;2024-02-23T00:13:58;9.10;71.90
4677;DHT22;2352;48.180;11.478;2024-02-23T00:19:01;9.30;71.20
4677;DHT22;2352;48.180;11.478;2024-02-23T00:24:04;9.00;70.80
4677;DHT22;2352;48.180;11.478;2024-02-23T00:29:09;9.00;70.60
4677;DHT22;2352;48.180;11.478;2024-02-23T00:34:12;8.90;70.20
4677;DHT22;2352;48.180;11.478;2024-02-23T00:39:15;8.80;69.90
4677;DHT22;2352;48.180;11.478;2024-02-23T00:44:20;8.90;70.00
4677;DHT22;2352;48.180;11.478;2024-02-23T00:49:23;8.90;69.30
4677;DHT22;2352;48.180;11.478;2024-02-23T00:54:26;8.90;69.50
4677;DHT22;2352;48.180;11.478;2024-02-23T00:59:30;8.90;69.60
4677;DHT22;2352;48.180;11.478;2024-02-23T01:04:33;8.90;68.90
4677;DHT22;2352;48.180;11.478;2024-02-23T01:09:36;8.80;68.40
4677;DHT22;2352;48.180;11.478;2024-02-23T01:14:40;8.90;69.10
4677;DHT22;2352;48.180;11.478;2024-02-23T01:19:44;8.90;68.30
4677;DHT22;2352;48.180;11.478;2024-02-23T01:24:47;8.90;67.90
4677;DHT22;2352;48.180;11.478;2024-02-23T01:29:51;8.80;68.40
4677;DHT22;2352;48.180;11.478;2024-02-23T01:34:54;8.80;67.70
4677;DHT22;2352;48.180;11.478;2024-02-23T01:39:58;8.80;68.10
4677;DHT22;2352;48.180;11.478;2024-02-23T01:45:02;8.70;67.80
4677;DHT22;2352;48.180;11.478;2024-02-23T01:50:07;8.60;68.00
4677;DHT22;2352;48.180;11.478;2024-02-23T01:55:10;8.60;68.20
4677;DHT22;2352;48.180;11.478;2024-02-23T02:00:16;8.40;68.50
4677;DHT22;2352;48.180;11.478;2024-02-23T02:05:19;8.40;68.30
4677;DHT22;2352;48.180;11.478;2024-02-23T02:10:22;8.40;68.60
4677;DHT22;2352;48.180;11.478;2024-02-23T02:15:27;8.40;68.50
4677;DHT22;2352;48.180;11.478;2024-02-23T02:20:32;8.40;68.10
4677;DHT22;2352;48.180;11.478;2024-02-23T02:25:35;8.30;68.70
4677;DHT22;2352;48.180;11.478;2024-02-23T02:30:40;8.20;69.00
4677;DHT22;2352;48.180;11.478;2024-02-23T02:35:43;8.30;68.40
4677;DHT22;2352;48.180;11.478;2024-02-23T02:40:46;8.10;68.20
4677;DHT22;2352;48.180;11.478;2024-02-23T02:45:50;8.10;68.80
4677;DHT22;2352;48.180;11.478;2024-02-23T02:50:53;8.30;68.50
4677;DHT22;2352;48.180;11.478;2024-02-23T02:55:56;8.30;68.50
4677;DHT22;2352;48.180;11.478;2024-02-23T03:01:00;8.20;69.00
4677;DHT22;2352;48.180;11.478;2024-02-23T03:06:03;8.30;69.70
4677;DHT22;2352;48.180;11.478;2024-02-23T03:11:07;8.10;69.90
4677;DHT22;2352;48.180;11.478;2024-02-23T03:16:16;8.20;69.20
4677;DHT22;2352;48.180;11.478;2024-02-23T03:21:19;8.10;68.00
4677;DHT22;2352;48.180;11.478;2024-02-23T03:26:22;8.10;68.40
4677;DHT22;2352;48.180;11.478;2024-02-23T03:31:27;8.20;68.60
4677;DHT22;2352;48.180;11.478;2024-02-23T03:36:30;8.20;68.70
4677;DHT22;2352;48.180;11.478;2024-02-23T03:41:33;8.00;68.60
4677;DHT22;2352;48.180;11.478;2024-02-23T03:46:37;7.90;68.80
4677;DHT22;2352;48.180;11.478;2024-02-23T03:51:40;7.60;70.40
4677;DHT22;2352;48.180;11.478;2024-02-23T03:56:43;7.70;71.60
4677;DHT22;2352;48.180;11.478;2024-02-23T04:01:48;7.90;71.80
4677;DHT22;2352;48.180;11.478;2024-02-23T04:06:51;8.00;71.40
4677;DHT22;2352;48.180;11.478;2024-02-23T04:11:54;7.90;71.90
4677;DHT22;2352;48.180;11.478;2024-02-23T04:16:58;7.70;72.70
4677;DHT22;2352;48.180;11.478;2024-02-23T04:22:01;7.70;72.10
4677;DHT22;2352;48.180;11.478;2024-02-23T04:27:04;7.70;72.20
4677;DHT22;2352;48.180;11.478;2024-02-23T04:32:08;7.60;72.50
4677;DHT22;2352;48.180;11.478;2024-02-23T04:37:11;7.70;71.60
4677;DHT22;2352;48.180;11.478;2024-02-23T04:42:14;7.50;70.70
4677;DHT22;2352;48.180;11.478;2024-02-23T04:47:19;7.50;70.80
4677;DHT22;2352;48.180;11.478;2024-02-23T04:52:21;7.70;70.60
4677;DHT22;2352;48.180;11.478;2024-02-23T04:57:24;7.50;70.20
4677;DHT22;2352;48.180;11.478;2024-02-23T05:02:29;7.30;70.00
4677;DHT22;2352;48.180;11.478;2024-02-23T05:07:37;7.40;71.10
4677;DHT22;2352;48.180;11.478;2024-02-23T05:12:39;7.40;70.50
4677;DHT22;2352;48.180;11.478;2024-02-23T05:17:44;7.30;70.90
4677;DHT22;2352;48.180;11.478;2024-02-23T05:22:47;7.30;71.10
4677;DHT22;2352;48.180;11.478;2024-02-23T05:27:50;7.30;71.30
4677;DHT22;2352;48.180;11.478;2024-02-23T05:32:55;7.30;71.10
4677;DHT22;2352;48.180;11.478;2024-02-23T05:37:58;7.30;71.30
4677;DHT22;2352;48.180;11.478;2024-02-23T05:43:02;7.30;71.90
4677;DHT22;2352;48.180;11.478;2024-02-23T05:48:07;7.30;72.20
4677;DHT22;2352;48.180;11.478;2024-02-23T05:53:10;7.40;71.70
4677;DHT22;2352;48.180;11.478;2024-02-23T05:58:13;7.40;71.80
4677;DHT22;2352;48.180;11.478;2024-02-23T06:03:19;7.30;72.20
4677;DHT22;2352;48.180;11.478;2024-02-23T06:08:22;7.40;72.30
4677;DHT22;2352;48.180;11.478;2024-02-23T06:13:25;7.30;72.80
4677;DHT22;2352;48.180;11.478;2024-02-23T06:18:29;7.40;72.20
4677;DHT22;2352;48.180;11.478;2024-02-23T06:23:32;7.40;72.10
4677;DHT22;2352;48.180;11.478;2024-02-23T06:28:35;7.50;71.10
4677;DHT22;2352;48.180;11.478;2024-02-23T06:33:41;7.40;71.20
4677;DHT22;2352;48.180;11.478;2024-02-23T06:38:44;7.40;70.90
4677;DHT22;2352;48.180;11.478;2024-02-23T06:43:47;7.40;70.50
4677;DHT22;2352;48.180;11.478;2024-02-23T06:48:52;7.40;70.30
4677;DHT22;2352;48.180;11.478;2024-02-23T06:53:55;7.20;69.20
4677;DHT22;2352;48.180;11.478;2024-02-23T06:58:58;7.10;70.00
4677;DHT22;2352;48.180;11.478;2024-02-23T07:04:02;7.30;68.90
4677;DHT22;2352;48.180;11.478;2024-02-23T07:09:05;7.30;69.00
4677;DHT22;2352;48.180;11.478;2024-02-23T07:14:10;7.40;69.40
4677;DHT22;2352;48.180;11.478;2024-02-23T07:19:16;7.40;70.00
4677;DHT22;2352;48.180;11.478;2024-02-23T07:24:19;7.60;69.50
4677;DHT22;2352;48.180;11.478;2024-02-23T07:29:22;7.50;69.00
4677;DHT22;2352;48.180;11.478;2024-02-23T07:34:26;7.60;68.70
4677;DHT22;2352;48.180;11.478;2024-02-23T07:39:29;7.50;68.30
4677;DHT22;2352;48.180;11.478;2024-02-23T07:44:32;7.40;68.80
4677;DHT22;2352;48.180;11.478;2024-02-23T07:49:37;7.40;69.10
4677;DHT22;2352;48.180;11.478;2024-02-23T07:54:42;7.40;69.00
4677;DHT22;2352;48.180;11.478;2024-02-23T07:59:45;7.60;68.40
4677;DHT22;2352;48.180;11.478;2024-02-23T08:04:49;7.60;67.80
4677;DHT22;2352;48.180;11.478;2024-02-23T08:09:54;7.60;68.00
4677;DHT22;2352;48.180;11.478;2024-02-23T08:14:57;7.70;68.20
4677;DHT22;2352;48.180;11.478;2024-02-23T08:20:01;7.80;67.40
4677;DHT22;2352;48.180;11.478;2024-02-23T08:25:06;7.80;67.60
4677;DHT22;2352;48.180;11.478;2024-02-23T08:30:11;7.80;68.00
4677;DHT22;2352;48.180;11.478;2024-02-23T08:35:17;8.00;67.10
4677;DHT22;2352;48.180;11.478;2024-02-23T08:40:20;7.90;67.20
4677;DHT22;2352;48.180;11.478;2024-02-23T08:45:23;8.00;66.70
4677;DHT22;2352;48.180;11.478;2024-02-23T08:50:28;8.00;66.90
4677;DHT22;2352;48.180;11.478;2024-02-23T08:55:31;7.90;65.20
4677;DHT22;2352;48.180;11.478;2024-02-23T09:00:34;7.90;65.10
4677;DHT22;2352;48.180;11.478;2024-02-23T09:05:40;7.70;66.00
4677;DHT22;2352;48.180;11.478;2024-02-23T09:10:43;7.80;65.80
4677;DHT22;2352;48.180;11.478;2024-02-23T09:15:46;7.80;65.40
4677;DHT22;2352;48.180;11.478;2024-02-23T09:20:50;7.80;65.90
4677;DHT22;2352;48.180;11.478;2024-02-23T09:25:53;7.70;64.80
4677;DHT22;2352;48.180;11.478;2024-02-23T09:30:56;7.60;64.00
4677;DHT22;2352;48.180;11.478;2024-02-23T09:36:01;7.50;62.80
4677;DHT22;2352;48.180;11.478;2024-02-23T09:41:04;7.40;63.00
4677;DHT22;2352;48.180;11.478;2024-02-23T09:46:08;7.40;63.00
4677;DHT22;2352;48.180;11.478;2024-02-23T09:51:13;7.30;64.20
4677;DHT22;2352;48.180;11.478;2024-02-23T09:56:17;7.60;63.90
4677;DHT22;2352;48.180;11.478;2024-02-23T10:01:27;7.50;63.70
4677;DHT22;2352;48.180;11.478;2024-02-23T10:06:31;7.60;64.40
4677;DHT22;2352;48.180;11.478;2024-02-23T10:11:34;7.80;64.80
4677;DHT22;2352;48.180;11.478;2024-02-23T10:16:38;7.80;64.70
4677;DHT22;2352;48.180;11.478;2024-02-23T10:21:42;7.90;64.70
4677;DHT22;2352;48.180;11.478;2024-02-23T10:26:45;7.90;64.80
4677;DHT22;2352;48.180;11.478;2024-02-23T10:31:48;7.90;64.70
4677;DHT22;2352;48.180;11.478;2024-02-23T10:36:54;8.10;65.30
4677;DHT22;2352;48.180;11.478;2024-02-23T10:42:02;8.20;64.00
4677;DHT22;2352;48.180;11.478;2024-02-23T10:47:07;8.20;64.00
4677;DHT22;2352;48.180;11.478;2024-02-23T10:52:12;8.30;63.60
4677;DHT22;2352;48.180;11.478;2024-02-23T10:57:17;8.40;61.70
4677;DHT22;2352;48.180;11.478;2024-02-23T11:02:21;8.30;61.60
4677;DHT22;2352;48.180;11.478;2024-02-23T11:07:29;8.40;60.00
4677;DHT22;2352;48.180;11.478;2024-02-23T11:12:34;8.30;60.90
4677;DHT22;2352;48.180;11.478;2024-02-23T11:17:38;8.30;61.60
4677;DHT22;2352;48.180;11.478;2024-02-23T11:22:42;8.40;60.80
4677;DHT22;2352;48.180;11.478;2024-02-23T11:27:49;8.40;62.00
4677;DHT22;2352;48.180;11.478;2024-02-23T11:32:58;8.40;62.20
4677;DHT22;2352;48.180;11.478;2024-02-23T11:38:04;8.40;62.50
4677;DHT22;2352;48.180;11.478;2024-02-23T11:43:08;8.40;62.70
4677;DHT22;2352;48.180;11.478;2024-02-23T11:48:12;8.30;62.20
4677;DHT22;2352;48.180;11.478;2024-02-23T11:53:17;8.20;61.90
4677;DHT22;2352;48.180;11.478;2024-02-23T11:58:23;8.20;62.40
4677;DHT22;2352;48.180;11.478;2024-02-23T12:03:26;8.10;62.40
4677;DHT22;2352;48.180;11.478;2024-02-23T12:08:31;8.10;62.60
4677;DHT22;2352;48.180;11.478;2024-02-23T12:13:39;8.10;62.30
4677;DHT22;2352;48.180;11.478;2024-02-23T12:18:42;8.10;61.60
4677;DHT22;2352;48.180;11.478;2024-02-23T12:23:49;7.90;62.20
4677;DHT22;2352;48.180;11.478;2024-02-23T12:28:52;8.00;62.20
4677;DHT22;2352;48.180;11.478;2024-02-23T12:33:57;7.80;62.30
4677;DHT22;2352;48.180;11.478;2024-02-23T12:39:01;7.80;61.50
4677;DHT22;2352;48.180;11.478;2024-02-23T12:44:04;7.80;61.70
4677;DHT22;2352;48.180;11.478;2024-02-23T12:49:08;7.80;62.50
4677;DHT22;2352;48.180;11.478;2024-02-23T12:54:12;7.90;61.40
4677;DHT22;2352;48.180;11.478;2024-02-23T12:59:15;7.90;60.90
4677;DHT22;2352;48.180;11.478;2024-02-23T13:04:19;7.70;61.40
4677;DHT22;2352;48.180;11.478;2024-02-23T13:09:24;7.80;61.50
4677;DHT22;2352;48.180;11.478;2024-02-23T13:14:26;7.70;61.50
4677;DHT22;2352;48.180;11.478;2024-02-23T13:19:29;7.80;61.20
4677;DHT22;2352;48.180;11.478;2024-02-23T13:24:34;7.80;61.50
4677;DHT22;2352;48.180;11.478;2024-02-23T13:29:37;7.90;61.00
4677;DHT22;2352;48.180;11.478;2024-02-23T13:34:40;7.70;61.30
4677;DHT22;2352;48.180;11.478;2024-02-23T13:39:44;7.70;61.40
4677;DHT22;2352;48.180;11.478;2024-02-23T13:44:47;7.70;60.80
4677;DHT22;2352;48.180;11.478;2024-02-23T13:49:50;7.60;60.50
4677;DHT22;2352;48.180;11.478;2024-02-23T13:54:54;7.70;60.60
4677;DHT22;2352;48.180;11.478;2024-02-23T13:59:57;7.70;60.50
4677;DHT22;2352;48.180;11.478;2024-02-23T14:05:01;7.40;60.50
4677;DHT22;2352;48.180;11.478;2024-02-23T14:10:08;7.40;61.60
4677;DHT22;2352;48.180;11.478;2024-02-23T14:15:11;7.40;60.60
4677;DHT22;2352;48.180;11.478;2024-02-23T14:20:14;7.40;60.80
4677;DHT22;2352;48.180;11.478;2024-02-23T14:25:18;7.40;61.30
4677;DHT22;2352;48.180;11.478;2024-02-23T14:30:21;7.40;61.20
4677;DHT22;2352;48.180;11.478;2024-02-23T14:35:24;7.40;60.40
4677;DHT22;2352;48.180;11.478;2024-02-23T14:40:29;7.30;60.40
4677;DHT22;2352;48.180;11.478;2024-02-23T14:45:32;7.20;61.30
4677;DHT22;2352;48.180;11.478;2024-02-23T14:50:35;7.20;61.10
4677;DHT22;2352;48.180;11.478;2024-02-23T14:55:39;7.10;61.30
4677;DHT22;2352;48.180;11.478;2024-02-23T15:00:42;7.10;61.20
4677;DHT22;2352;48.180;11.478;2024-02-23T15:05:45;7.00;61.60
4677;DHT22;2352;48.180;11.478;2024-02-23T15:10:50;7.00;61.50
4677;DHT22;2352;48.180;11.478;2024-02-23T15:15:53;7.00;61.30
4677;DHT22;2352;48.180;11.478;2024-02-23T15:20:58;7.00;61.60
4677;DHT22;2352;48.180;11.478;2024-02-23T15:26:02;7.10;60.80
4677;DHT22;2352;48.180;11.478;2024-02-23T15:31:12;7.10;60.60
4677;DHT22;2352;48.180;11.478;2024-02-23T15:36:15;7.10;60.70
4677;DHT22;2352;48.180;11.478;2024-02-23T15:41:20;7.00;60.60
4677;DHT22;2352;48.180;11.478;2024-02-23T15:46:23;7.00;61.50
4677;DHT22;2352;48.180;11.478;2024-02-23T15:51:27;7.10;60.70
4677;DHT22;2352;48.180;11.478;2024-02-23T15:56:54;7.10;60.60
4677;DHT22;2352;48.180;11.478;2024-02-23T16:01:57;7.10;60.50
4677;DHT22;2352;48.180;11.478;2024-02-23T16:07:04;7.00;60.80
4677;DHT22;2352;48.180;11.478;2024-02-23T16:12:09;6.90;60.90
4677;DHT22;2352;48.180;11.478;2024-02-23T16:17:14;6.90;60.60
4677;DHT22;2352;48.180;11.478;2024-02-23T16:22:17;6.90;60.70
4677;DHT22;2352;48.180;11.478;2024-02-23T16:27:21;6.90;60.50
4677;DHT22;2352;48.180;11.478;2024-02-23T16:32:24;6.70;60.90
4677;DHT22;2352;48.180;11.478;2024-02-23T16:37:27;6.80;60.50
4677;DHT22;2352;48.180;11.478;2024-02-23T16:42:33;6.70;60.70
4677;DHT22;2352;48.180;11.478;2024-02-23T16:47:36;6.80;62.80
4677;DHT22;2352;48.180;11.478;2024-02-23T16:52:40;6.80;61.10
4677;DHT22;2352;48.180;11.478;2024-02-23T16:57:44;6.70;61.30
4677;DHT22;2352;48.180;11.478;2024-02-23T17:02:47;6.70;61.10
4677;DHT22;2352;48.180;11.478;2024-02-23T17:07:50;6.70;61.30
4677;DHT22;2352;48.180;11.478;2024-02-23T17:12:54;6.60;60.90
4677;DHT22;2352;48.180;11.478;2024-02-23T17:17:57;6.40;61.80
4677;DHT22;2352;48.180;11.478;2024-02-23T17:23:01;6.40;62.00
4677;DHT22;2352;48.180;11.478;2024-02-23T17:28:05;6.50;61.70
4677;DHT22;2352;48.180;11.478;2024-02-23T17:33:08;6.40;62.10
4677;DHT22;2352;48.180;11.478;2024-02-23T17:38:11;6.40;62.50
4677;DHT22;2352;48.180;11.478;2024-02-23T17:43:15;6.40;62.70
4677;DHT22;2352;48.180;11.478;2024-02-23T17:48:18;6.40;62.50
4677;DHT22;2352;48.180;11.478;2024-02-23T17:53:21;6.50;62.90
4677;DHT22;2352;48.180;11.478;2024-02-23T17:58:26;6.40;62.70
4677;DHT22;2352;48.180;11.478;2024-02-23T18:03:29;6.50;62.80
4677;DHT22;2352;48.180;11.478;2024-02-23T18:08:32;6.50;62.80
4677;DHT22;2352;48.180;11.478;2024-02-23T18:13:39;6.40;63.40
4677;DHT22;2352;48.180;11.478;2024-02-23T18:18:43;6.30;63.50
4677;DHT22;2352;48.180;11.478;2024-02-23T18:23:47;6.30;63.90
4677;DHT22;2352;48.180;11.478;2024-02-23T18:28:51;6.30;64.20
4677;DHT22;2352;48.180;11.478;2024-02-23T18:33:54;6.20;64.40
4677;DHT22;2352;48.180;11.478;2024-02-23T18:38:57;6.30;64.50
4677;DHT22;2352;48.180;11.478;2024-02-23T18:44:02;6.30;64.50
4677;DHT22;2352;48.180;11.478;2024-02-23T18:49:05;6.10;65.30
4677;DHT22;2352;48.180;11.478;2024-02-23T18:54:09;7.00;73.40
4677;DHT22;2352;48.180;11.478;2024-02-23T18:59:14;6.80;65.90
4677;DHT22;2352;48.180;11.478;2024-02-23T19:04:17;6.40;65.60
4677;DHT22;2352;48.180;11.478;2024-02-23T19:09:20;6.30;65.60
4677;DHT22;2352;48.180;11.478;2024-02-23T19:14:25;6.30;65.20
4677;DHT22;2352;48.180;11.478;2024-02-23T19:19:28;6.10;65.80
4677;DHT22;2352;48.180;11.478;2024-02-23T19:24:31;6.20;65.90
4677;DHT22;2352;48.180;11.478;2024-02-23T19:29:35;6.10;65.90
4677;DHT22;2352;48.180;11.478;2024-02-23T19:34:38;6.30;65.60
4677;DHT22;2352;48.180;11.478;2024-02-23T19:39:41;6.20;65.60
4677;DHT22;2352;48.180;11.478;2024-02-23T19:44:46;6.20;65.60
4677;DHT22;2352;48.180;11.478;2024-02-23T19:49:49;6.00;66.10
4677;DHT22;2352;48.180;11.478;2024-02-23T19:54:51;6.10;66.10
4677;DHT22;2352;48.180;11.478;2024-02-23T19:59:56;6.00;66.40
4677;DHT22;2352;48.180;11.478;2024-02-23T20:05:00;6.10;66.20
4677;DHT22;2352;48.180;11.478;2024-02-23T20:10:04;6.10;66.20
4677;DHT22;2352;48.180;11.478;2024-02-23T20:15:09;5.90;66.70
4677;DHT22;2352;48.180;11.478;2024-02-23T20:20:13;5.90;66.80
4677;DHT22;2352;48.180;11.478;2024-02-23T20:25:16;5.90;66.90
4677;DHT22;2352;48.180;11.478;2024-02-23T20:30:20;5.90;66.90
4677;DHT22;2352;48.180;11.478;2024-02-23T20:35:23;5.90;67.20
4677;DHT22;2352;48.180;11.478;2024-02-23T20:40:27;5.80;67.50
4677;DHT22;2352;48.180;11.478;2024-02-23T20:45:31;5.80;67.40
4677;DHT22;2352;48.180;11.478;2024-02-23T20:50:34;5.80;67.00
4677;DHT22;2352;48.180;11.478;2024-02-23T20:55:37;5.90;67.10
4677;DHT22;2352;48.180;11.478;2024-02-23T21:00:41;5.90;66.90
4677;DHT22;2352;48.180;11.478;2024-02-23T21:05:44;5.90;67.00
4677;DHT22;2352;48.180;11.478;2024-02-23T21:10:48;5.90;66.70
4677;DHT22;2352;48.180;11.478;2024-02-23T21:15:52;5.80;67.40
4677;DHT22;2352;48.180;11.478;2024-02-23T21:20:57;5.80;67.10
4677;DHT22;2352;48.180;11.478;2024-02-23T21:26:00;5.60;67.60
4677;DHT22;2352;48.180;11.478;2024-02-23T21:31:05;5.80;67.30
4677;DHT22;2352;48.180;11.478;2024-02-23T21:36:08;5.70;67.70
4677;DHT22;2352;48.180;11.478;2024-02-23T21:41:10;5.60;67.90
4677;DHT22;2352;48.180;11.478;2024-02-23T21:46:15;5.60;68.00
4677;DHT22;2352;48.180;11.478;2024-02-23T21:51:18;5.50;68.00
4677;DHT22;2352;48.180;11.478;2024-02-23T21:56:21;5.40;68.10
4677;DHT22;2352;48.180;11.478;2024-02-23T22:01:25;5.50;68.00
4677;DHT22;2352;48.180;11.478;2024-02-23T22:06:28;5.60;67.80
4677;DHT22;2352;48.180;11.478;2024-02-23T22:11:31;5.40;68.10
4677;DHT22;2352;48.180;11.478;2024-02-23T22:16:35;5.40;68.30
4677;DHT22;2352;48.180;11.478;2024-02-23T22:21:41;5.50;68.00
4677;DHT22;2352;48.180;11.478;2024-02-23T22:26:44;5.50;67.90
4677;DHT22;2352;48.180;11.478;2024-02-23T22:31:50;5.40;68.00
4677;DHT22;2352;48.180;11.478;2024-02-23T22:36:53;5.30;68.10
4677;DHT22;2352;48.180;11.478;2024-02-23T22:41:56;5.30;68.30
4677;DHT22;2352;48.180;11.478;2024-02-23T22:47:00;5.20;68.40
4677;DHT22;2352;48.180;11.478;2024-02-23T22:52:03;5.20;68.50
4677;DHT22;2352;48.180;11.478;2024-02-23T22:57:06;5.10;68.40
4677;DHT22;2352;48.180;11.478;2024-02-23T23:02:10;5.10;68.50
4677;DHT22;2352;48.180;11.478;2024-02-23T23:07:14;5.00;68.70
4677;DHT22;2352;48.180;11.478;2024-02-23T23:12:17;5.10;68.80
4677;DHT22;2352;48.180;11.478;2024-02-23T23:17:21;5.00;68.80
4677;DHT22;2352;48.180;11.478;2024-02-23T23:22:24;5.00;69.00
4677;DHT22;2352;48.180;11.478;2024-02-23T23:27:27;4.90;68.80
4677;DHT22;2352;48.180;11.478;2024-02-23T23:32:32;4.90;69.00
4677;DHT22;2352;48.180;11.478;2024-02-23T23:37:35;4.80;69.40
4677;DHT22;2352;48.180;11.478;2024-02-23T23:42:38;4.80;69.30
4677;DHT22;2352;48.180;11.478;2024-02-23T23:47:42;4.70;69.40
4677;DHT22;2352;48.180;11.478;2024-02-23T23:52:46;4.80;69.50
4677;DHT22;2352;48.180;11.478;2024-02-23T23:57:49;4.70;69.30
